createdAt,value
2018-08-25T00:00:09.611Z,84
2018-08-25T00:01:12.363Z,84
2018-08-25T00:02:14.937Z,84
2018-08-25T00:03:17.793Z,84
2018-08-25T00:04:20.584Z,84
2018-08-25T00:05:23.522Z,84
2018-08-25T00:06:26.845Z,85
2018-08-25T00:07:30.202Z,84
2018-08-25T00:08:33.137Z,84
2018-08-25T00:09:37.072Z,84
2018-08-25T00:10:41.105Z,84
2018-08-25T00:11:44.144Z,83
2018-08-25T00:12:46.733Z,84
2018-08-25T00:13:48.826Z,83
2018-08-25T00:14:51.306Z,83
2018-08-25T00:15:53.400Z,83
2018-08-25T00:16:55.514Z,83
2018-08-25T00:17:57.904Z,83
2018-08-25T00:19:00.008Z,83
2018-08-25T00:20:02.401Z,82
2018-08-25T00:21:04.526Z,82
2018-08-25T00:22:06.622Z,82
2018-08-25T00:23:08.730Z,82
2018-08-25T00:24:10.834Z,83
2018-08-25T00:25:12.931Z,83
2018-08-25T00:26:15.035Z,83
2018-08-25T00:27:17.127Z,83
2018-08-25T00:28:19.525Z,83
2018-08-25T00:29:21.612Z,82
2018-08-25T00:30:23.708Z,82
2018-08-25T00:31:25.797Z,82
2018-08-25T00:32:28.293Z,82
2018-08-25T00:33:30.384Z,82
2018-08-25T00:34:32.483Z,82
2018-08-25T00:35:34.586Z,81
2018-08-25T00:36:36.675Z,82
2018-08-25T00:37:39.113Z,82
2018-08-25T00:38:41.294Z,82
2018-08-25T00:39:43.865Z,82
2018-08-25T00:40:46.606Z,82
2018-08-25T00:41:48.711Z,82
2018-08-25T00:42:50.924Z,82
2018-08-25T00:43:53.598Z,82
2018-08-25T00:44:55.684Z,82
2018-08-25T00:45:57.895Z,82
2018-08-25T00:47:00.329Z,83
2018-08-25T00:48:02.695Z,82
2018-08-25T00:49:05.468Z,82
2018-08-25T00:50:07.678Z,82
2018-08-25T00:51:10.006Z,82
2018-08-25T00:52:12.221Z,82
2018-08-25T00:53:14.425Z,82
2018-08-25T00:54:16.536Z,82
2018-08-25T00:55:18.707Z,82
2018-08-25T00:56:21.159Z,83
2018-08-25T00:57:23.579Z,83
2018-08-25T00:58:26.067Z,83
2018-08-25T00:59:28.435Z,83
2018-08-25T01:00:31.249Z,83
2018-08-25T01:01:34.215Z,83
2018-08-25T01:02:36.709Z,83
2018-08-25T01:03:39.999Z,84
2018-08-25T01:04:42.339Z,83
2018-08-25T01:05:44.833Z,84
2018-08-25T01:06:47.492Z,84
2018-08-25T01:07:49.790Z,84
2018-08-25T01:08:53.301Z,84
2018-08-25T01:09:57.197Z,84
2018-08-25T01:11:01.013Z,84
2018-08-25T01:12:04.927Z,85
2018-08-25T01:13:09.023Z,85
2018-08-25T01:14:12.555Z,84
2018-08-25T01:15:16.577Z,84
2018-08-25T01:16:19.668Z,84
2018-08-25T01:17:24.077Z,84
2018-08-25T01:18:27.587Z,84
2018-08-25T01:19:30.486Z,83
2018-08-25T01:20:33.037Z,84
2018-08-25T01:21:35.605Z,84
2018-08-25T01:22:38.480Z,84
2018-08-25T01:23:41.923Z,84
2018-08-25T01:24:44.609Z,84
2018-08-25T01:25:46.910Z,84
2018-08-25T01:26:49.211Z,84
2018-08-25T01:27:51.901Z,84
2018-08-25T01:28:54.706Z,84
2018-08-25T01:29:57.060Z,84
2018-08-25T01:30:59.338Z,84
2018-08-25T01:32:01.891Z,84
2018-08-25T01:33:04.346Z,84
2018-08-25T01:34:06.644Z,84
2018-08-25T01:35:09.183Z,84
2018-08-25T01:36:11.591Z,85
2018-08-25T01:37:13.946Z,85
2018-08-25T01:38:16.186Z,85
2018-08-25T01:39:18.485Z,85
2018-08-25T01:40:21.079Z,85
2018-08-25T01:41:23.747Z,85
2018-08-25T01:42:26.106Z,85
2018-08-25T01:43:28.763Z,85
2018-08-25T01:44:31.576Z,85
2018-08-25T01:45:34.080Z,84
2018-08-25T01:46:36.466Z,84
2018-08-25T01:47:39.078Z,84
2018-08-25T01:48:41.211Z,84
2018-08-25T01:49:43.583Z,84
2018-08-25T01:50:46.109Z,84
2018-08-25T01:51:48.315Z,84
2018-08-25T01:52:50.671Z,83
2018-08-25T01:53:53.265Z,84
2018-08-25T01:54:55.770Z,84
2018-08-25T01:55:58.118Z,84
2018-08-25T01:57:01.331Z,84
2018-08-25T01:58:03.756Z,83
2018-08-25T01:59:05.999Z,84
2018-08-25T02:00:08.170Z,84
2018-08-25T02:01:10.802Z,84
2018-08-25T02:02:13.533Z,84
2018-08-25T02:03:15.745Z,84
2018-08-25T02:04:17.951Z,84
2018-08-25T02:05:20.121Z,84
2018-08-25T02:06:22.915Z,85
2018-08-25T02:07:25.476Z,85
2018-08-25T02:08:28.029Z,84
2018-08-25T02:09:30.854Z,84
2018-08-25T02:10:33.047Z,84
2018-08-25T02:11:35.671Z,84
2018-08-25T02:12:37.978Z,85
2018-08-25T02:13:40.235Z,85
2018-08-25T02:14:42.557Z,85
2018-08-25T02:15:45.171Z,85
2018-08-25T02:16:47.847Z,86
2018-08-25T02:17:50.420Z,86
2018-08-25T02:18:52.710Z,86
2018-08-25T02:19:55.102Z,86
2018-08-25T02:20:57.724Z,86
2018-08-25T02:21:59.988Z,86
2018-08-25T02:23:02.310Z,86
2018-08-25T02:24:04.809Z,86
2018-08-25T02:25:08.251Z,86
2018-08-25T02:26:10.668Z,85
2018-08-25T02:27:13.346Z,85
2018-08-25T02:28:16.192Z,85
2018-08-25T02:29:18.462Z,85
2018-08-25T02:30:21.148Z,85
2018-08-25T02:31:23.998Z,85
2018-08-25T02:32:26.509Z,85
2018-08-25T02:33:30.096Z,85
2018-08-25T02:34:33.061Z,85
2018-08-25T02:35:35.804Z,85
2018-08-25T02:36:38.642Z,85
2018-08-25T02:37:41.478Z,85
2018-08-25T02:38:45.305Z,84
2018-08-25T02:39:48.324Z,84
2018-08-25T02:40:51.048Z,84
2018-08-25T02:41:53.760Z,84
2018-08-25T02:42:57.416Z,83
2018-08-25T02:43:59.999Z,83
2018-08-25T02:45:02.413Z,83
2018-08-25T02:46:04.799Z,83
2018-08-25T02:47:07.200Z,83
2018-08-25T02:48:09.682Z,82
2018-08-25T02:49:12.168Z,82
2018-08-25T02:50:14.586Z,82
2018-08-25T02:51:16.663Z,82
2018-08-25T02:52:19.064Z,83
2018-08-25T02:53:21.439Z,82
2018-08-25T02:54:24.234Z,82
2018-08-25T02:55:26.319Z,82
2018-08-25T02:56:28.807Z,82
2018-08-25T02:57:30.904Z,81
2018-08-25T02:58:32.995Z,82
2018-08-25T02:59:35.396Z,82
2018-08-25T03:00:37.779Z,81
2018-08-25T03:01:40.446Z,81
2018-08-25T03:02:42.539Z,81
2018-08-25T03:03:44.648Z,81
2018-08-25T03:04:46.745Z,81
2018-08-25T03:05:48.848Z,81
2018-08-25T03:06:50.949Z,81
2018-08-25T03:07:53.036Z,80
2018-08-25T03:08:55.132Z,80
2018-08-25T03:09:57.240Z,79
2018-08-25T03:10:59.714Z,79
2018-08-25T03:12:01.866Z,79
2018-08-25T03:13:04.268Z,79
2018-08-25T03:14:06.386Z,79
2018-08-25T03:15:08.472Z,79
2018-08-25T03:16:10.964Z,79
2018-08-25T03:17:13.055Z,79
2018-08-25T03:18:15.449Z,79
2018-08-25T03:19:17.538Z,79
2018-08-25T03:20:19.646Z,79
2018-08-25T03:21:21.738Z,79
2018-08-25T03:22:23.826Z,79
2018-08-25T03:23:25.932Z,79
2018-08-25T03:24:28.018Z,79
2018-08-25T03:25:30.815Z,78
2018-08-25T03:26:32.906Z,78
2018-08-25T03:27:35.019Z,78
2018-08-25T03:28:37.113Z,79
2018-08-25T03:29:39.501Z,79
2018-08-25T03:30:42.006Z,79
2018-08-25T03:31:44.490Z,78
2018-08-25T03:32:47.193Z,79
2018-08-25T03:33:49.294Z,79
2018-08-25T03:34:51.390Z,78
2018-08-25T03:35:53.481Z,78
2018-08-25T03:36:55.887Z,78
2018-08-25T03:37:57.980Z,78
2018-08-25T03:39:00.475Z,78
2018-08-25T03:40:02.575Z,78
2018-08-25T03:41:04.659Z,78
2018-08-25T03:42:06.758Z,78
2018-08-25T03:43:08.865Z,78
2018-08-25T03:44:10.953Z,78
2018-08-25T03:45:14.118Z,78
2018-08-25T03:46:16.220Z,77
2018-08-25T03:47:18.331Z,77
2018-08-25T03:48:20.457Z,77
2018-08-25T03:49:22.575Z,77
2018-08-25T03:50:24.670Z,78
2018-08-25T03:51:26.758Z,77
2018-08-25T03:52:28.866Z,77
2018-08-25T03:53:30.950Z,78
2018-08-25T03:54:33.336Z,78
2018-08-25T03:55:35.496Z,77
2018-08-25T03:56:37.819Z,77
2018-08-25T03:57:40.219Z,77
2018-08-25T03:58:42.311Z,77
2018-08-25T03:59:44.703Z,77
2018-08-25T04:00:46.793Z,77
2018-08-25T04:01:48.898Z,77
2018-08-25T04:02:51.275Z,76
2018-08-25T04:03:53.368Z,76
2018-08-25T04:04:55.480Z,76
2018-08-25T04:05:57.873Z,77
2018-08-25T04:07:00.257Z,77
2018-08-25T04:08:02.751Z,77
2018-08-25T04:09:04.846Z,77
2018-08-25T04:10:06.931Z,77
2018-08-25T04:11:09.034Z,77
2018-08-25T04:12:11.732Z,77
2018-08-25T04:13:13.829Z,76
2018-08-25T04:14:15.938Z,76
2018-08-25T04:15:18.030Z,76
2018-08-25T04:16:20.114Z,76
2018-08-25T04:17:22.615Z,76
2018-08-25T04:18:24.994Z,76
2018-08-25T04:19:27.083Z,76
2018-08-25T04:20:29.186Z,76
2018-08-25T04:21:31.285Z,76
2018-08-25T04:22:33.383Z,76
2018-08-25T04:23:35.481Z,76
2018-08-25T04:24:37.586Z,76
2018-08-25T04:25:39.673Z,76
2018-08-25T04:26:42.082Z,76
2018-08-25T04:27:44.171Z,76
2018-08-25T04:28:46.550Z,76
2018-08-25T04:29:48.945Z,76
2018-08-25T04:30:51.067Z,76
2018-08-25T04:31:53.165Z,76
2018-08-25T04:32:55.264Z,76
2018-08-25T04:33:57.342Z,76
2018-08-25T04:34:59.731Z,76
2018-08-25T04:36:01.820Z,76
2018-08-25T04:37:03.911Z,76
2018-08-25T04:38:06.407Z,76
2018-08-25T04:39:08.490Z,76
2018-08-25T04:40:10.584Z,76
2018-08-25T04:41:13.009Z,76
2018-08-25T04:42:15.082Z,76
2018-08-25T04:43:17.166Z,76
2018-08-25T04:44:19.265Z,76
2018-08-25T04:45:21.354Z,76
2018-08-25T04:46:23.731Z,76
2018-08-25T04:47:26.229Z,76
2018-08-25T04:48:28.316Z,76
2018-08-25T04:49:30.398Z,76
2018-08-25T04:50:32.509Z,76
2018-08-25T04:51:34.982Z,75
2018-08-25T04:52:37.070Z,76
2018-08-25T04:53:39.164Z,75
2018-08-25T04:54:41.249Z,75
2018-08-25T04:55:43.347Z,75
2018-08-25T04:56:45.439Z,76
2018-08-25T04:57:47.826Z,76
2018-08-25T04:58:49.903Z,76
2018-08-25T04:59:52.017Z,76
2018-08-25T05:00:54.399Z,76
2018-08-25T05:01:56.515Z,76
2018-08-25T05:02:58.601Z,75
2018-08-25T05:04:00.665Z,75
2018-08-25T05:05:03.158Z,75
2018-08-25T05:06:05.245Z,75
2018-08-25T05:07:07.665Z,75
2018-08-25T05:08:10.049Z,75
2018-08-25T05:09:12.535Z,75
2018-08-25T05:10:14.620Z,75
2018-08-25T05:11:16.728Z,75
2018-08-25T05:12:18.809Z,75
2018-08-25T05:13:20.901Z,75
2018-08-25T05:14:23.294Z,75
2018-08-25T05:15:25.390Z,75
2018-08-25T05:16:27.788Z,75
2018-08-25T05:17:30.275Z,75
2018-08-25T05:18:32.364Z,75
2018-08-25T05:19:34.456Z,75
2018-08-25T05:20:36.950Z,76
2018-08-25T05:21:39.380Z,75
2018-08-25T05:22:42.047Z,75
2018-08-25T05:23:44.157Z,75
2018-08-25T05:24:46.534Z,75
2018-08-25T05:25:48.623Z,75
2018-08-25T05:26:51.071Z,75
2018-08-25T05:27:53.502Z,75
2018-08-25T05:28:55.593Z,75
2018-08-25T05:29:57.688Z,75
2018-08-25T05:30:59.787Z,74
2018-08-25T05:32:01.870Z,75
2018-08-25T05:33:04.289Z,75
2018-08-25T05:34:06.360Z,75
2018-08-25T05:35:08.442Z,74
2018-08-25T05:36:10.550Z,74
2018-08-25T05:37:12.636Z,74
2018-08-25T05:38:14.739Z,74
2018-08-25T05:39:16.829Z,74
2018-08-25T05:40:18.932Z,74
2018-08-25T05:41:21.315Z,74
2018-08-25T05:42:23.707Z,74
2018-08-25T05:43:25.804Z,74
2018-08-25T05:44:28.180Z,74
2018-08-25T05:45:30.563Z,74
2018-08-25T05:46:32.660Z,74
2018-08-25T05:47:34.761Z,73
2018-08-25T05:48:37.196Z,73
2018-08-25T05:49:39.564Z,73
2018-08-25T05:50:41.667Z,72
2018-08-25T05:51:44.050Z,72
2018-08-25T05:52:46.137Z,72
2018-08-25T05:53:48.240Z,72
2018-08-25T05:54:50.717Z,72
2018-08-25T05:55:52.801Z,71
2018-08-25T05:56:54.918Z,71
2018-08-25T05:57:57.005Z,70
2018-08-25T05:58:59.381Z,70
2018-08-25T06:00:02.262Z,70
2018-08-25T06:01:04.635Z,69
2018-08-25T06:02:06.734Z,69
2018-08-25T06:03:08.829Z,69
2018-08-25T06:04:10.932Z,69
2018-08-25T06:05:13.012Z,69
2018-08-25T06:06:15.114Z,69
2018-08-25T06:07:17.605Z,68
2018-08-25T06:08:19.977Z,68
2018-08-25T06:09:22.381Z,68
2018-08-25T06:10:24.460Z,68
2018-08-25T06:11:26.556Z,68
2018-08-25T06:12:28.646Z,68
2018-08-25T06:13:31.709Z,67
2018-08-25T06:14:34.053Z,67
2018-08-25T06:15:36.549Z,67
2018-08-25T06:16:38.936Z,67
2018-08-25T06:17:41.081Z,67
2018-08-25T06:18:43.523Z,67
2018-08-25T06:19:45.614Z,67
2018-08-25T06:20:47.706Z,67
2018-08-25T06:21:50.097Z,67
2018-08-25T06:22:52.204Z,67
2018-08-25T06:23:54.690Z,67
2018-08-25T06:24:56.790Z,66
2018-08-25T06:25:58.893Z,66
2018-08-25T06:27:00.974Z,66
2018-08-25T06:28:03.077Z,67
2018-08-25T06:29:05.765Z,66
2018-08-25T06:30:08.321Z,66
2018-08-25T06:31:10.691Z,66
2018-08-25T06:32:12.793Z,66
2018-08-25T06:33:14.885Z,65
2018-08-25T06:34:16.991Z,65
2018-08-25T06:35:19.084Z,65
2018-08-25T06:36:21.851Z,65
2018-08-25T06:37:24.613Z,65
2018-08-25T06:38:26.726Z,65
2018-08-25T06:39:28.804Z,65
2018-08-25T06:40:30.901Z,65
2018-08-25T06:41:33.007Z,64
2018-08-25T06:42:35.140Z,64
2018-08-25T06:43:37.383Z,64
2018-08-25T06:44:39.707Z,63
2018-08-25T06:45:41.810Z,64
2018-08-25T06:46:43.890Z,63
2018-08-25T06:47:45.997Z,64
2018-08-25T06:48:48.091Z,64
2018-08-25T06:49:50.184Z,64
2018-08-25T06:50:52.290Z,64
2018-08-25T06:51:54.375Z,63
2018-08-25T06:52:56.473Z,63
2018-08-25T06:53:58.583Z,63
2018-08-25T06:55:00.684Z,62
2018-08-25T06:56:02.770Z,63
2018-08-25T06:57:04.865Z,62
2018-08-25T06:58:07.256Z,61
2018-08-25T06:59:09.357Z,61
2018-08-25T07:00:11.459Z,61
2018-08-25T07:01:13.869Z,60
2018-08-25T07:02:15.977Z,61
2018-08-25T07:03:18.348Z,60
2018-08-25T07:04:20.451Z,60
2018-08-25T07:05:22.846Z,60
2018-08-25T07:06:25.324Z,60
2018-08-25T07:07:27.433Z,60
2018-08-25T07:08:29.529Z,60
2018-08-25T07:09:31.622Z,60
2018-08-25T07:10:33.708Z,60
2018-08-25T07:11:35.826Z,60
2018-08-25T07:12:37.913Z,59
2018-08-25T07:13:40.299Z,59
2018-08-25T07:14:42.407Z,59
2018-08-25T07:15:44.492Z,59
2018-08-25T07:16:46.600Z,60
2018-08-25T07:17:48.695Z,58
2018-08-25T07:18:51.172Z,58
2018-08-25T07:19:53.514Z,58
2018-08-25T07:20:55.682Z,58
2018-08-25T07:21:57.723Z,59
2018-08-25T07:22:59.818Z,59
2018-08-25T07:24:02.221Z,58
2018-08-25T07:25:04.306Z,57
2018-08-25T07:26:06.436Z,56
2018-08-25T07:27:08.520Z,56
2018-08-25T07:28:10.625Z,56
2018-08-25T07:29:12.723Z,57
2018-08-25T07:30:14.831Z,57
2018-08-25T07:31:17.240Z,56
2018-08-25T07:32:19.343Z,56
2018-08-25T07:33:21.450Z,56
2018-08-25T07:34:23.856Z,56
2018-08-25T07:35:26.231Z,56
2018-08-25T07:36:28.341Z,56
2018-08-25T07:37:30.439Z,56
2018-08-25T07:38:32.537Z,56
2018-08-25T07:39:34.631Z,56
2018-08-25T07:40:36.741Z,56
2018-08-25T07:41:38.831Z,57
2018-08-25T07:42:40.927Z,56
2018-08-25T07:43:43.019Z,56
2018-08-25T07:44:45.145Z,56
2018-08-25T07:45:47.527Z,56
2018-08-25T07:46:49.627Z,56
2018-08-25T07:47:52.030Z,56
2018-08-25T07:48:54.122Z,57
2018-08-25T07:49:56.231Z,55
2018-08-25T07:50:58.628Z,55
2018-08-25T07:52:00.725Z,55
2018-08-25T07:53:02.808Z,55
2018-08-25T07:54:04.914Z,55
2018-08-25T07:55:07.008Z,56
2018-08-25T07:56:09.099Z,57
2018-08-25T07:57:11.206Z,58
2018-08-25T07:58:13.297Z,59
2018-08-25T07:59:16.230Z,60
2018-08-25T08:00:18.319Z,61
2018-08-25T08:01:20.807Z,61
2018-08-25T08:02:22.901Z,62
2018-08-25T08:03:24.997Z,63
2018-08-25T08:04:27.088Z,63
2018-08-25T08:05:29.241Z,63
2018-08-25T08:06:31.288Z,64
2018-08-25T08:07:33.386Z,64
2018-08-25T08:08:35.477Z,64
2018-08-25T08:09:37.984Z,64
2018-08-25T08:10:40.077Z,64
2018-08-25T08:11:42.175Z,64
2018-08-25T08:12:44.568Z,64
2018-08-25T08:13:46.651Z,63
2018-08-25T08:14:48.758Z,63
2018-08-25T08:15:50.863Z,63
2018-08-25T08:16:53.257Z,63
2018-08-25T08:17:55.363Z,62
2018-08-25T08:18:57.462Z,62
2018-08-25T08:19:59.560Z,60
2018-08-25T08:21:01.675Z,61
2018-08-25T08:22:04.050Z,60
2018-08-25T08:23:06.484Z,58
2018-08-25T08:24:08.586Z,58
2018-08-25T08:25:10.990Z,57
2018-08-25T08:26:13.079Z,56
2018-08-25T08:27:15.198Z,55
2018-08-25T08:28:17.291Z,56
2018-08-25T08:29:19.395Z,56
2018-08-25T08:30:21.510Z,56
2018-08-25T08:31:23.610Z,55
2018-08-25T08:32:26.108Z,55
2018-08-25T08:33:28.533Z,55
2018-08-25T08:34:30.640Z,56
2018-08-25T08:35:33.039Z,54
2018-08-25T08:36:35.143Z,54
2018-08-25T08:37:37.239Z,55
2018-08-25T08:38:39.338Z,55
2018-08-25T08:39:41.973Z,54
2018-08-25T08:40:44.070Z,55
2018-08-25T08:41:46.173Z,55
2018-08-25T08:42:48.675Z,55
2018-08-25T08:43:51.063Z,55
2018-08-25T08:44:53.220Z,55
2018-08-25T08:45:55.348Z,55
2018-08-25T08:46:57.440Z,55
2018-08-25T08:47:59.552Z,55
2018-08-25T08:49:01.656Z,55
2018-08-25T08:50:03.814Z,55
2018-08-25T08:51:07.413Z,55
2018-08-25T08:52:09.528Z,55
2018-08-25T08:53:11.630Z,55
2018-08-25T08:54:13.727Z,55
2018-08-25T08:55:15.844Z,55
2018-08-25T08:56:17.934Z,55
2018-08-25T08:57:20.424Z,55
2018-08-25T08:58:22.628Z,56
2018-08-25T08:59:24.646Z,55
2018-08-25T09:00:27.336Z,56
2018-08-25T09:01:29.454Z,56
2018-08-25T09:02:31.564Z,57
2018-08-25T09:03:33.795Z,56
2018-08-25T09:04:35.809Z,56
2018-08-25T09:05:38.234Z,57
2018-08-25T09:06:40.331Z,56
2018-08-25T09:07:42.722Z,56
2018-08-25T09:08:45.128Z,56
2018-08-25T09:09:47.226Z,56
2018-08-25T09:10:49.330Z,56
2018-08-25T09:11:51.918Z,56
2018-08-25T09:12:53.953Z,54
2018-08-25T09:13:56.055Z,55
2018-08-25T09:14:58.163Z,54
2018-08-25T09:16:00.251Z,54
2018-08-25T09:17:02.368Z,54
2018-08-25T09:18:04.472Z,53
2018-08-25T09:19:06.891Z,54
2018-08-25T09:20:09.002Z,54
2018-08-25T09:21:11.119Z,53
2018-08-25T09:22:13.192Z,53
2018-08-25T09:23:15.298Z,53
2018-08-25T09:24:17.394Z,53
2018-08-25T09:25:19.480Z,53
2018-08-25T09:26:21.580Z,52
2018-08-25T09:27:24.139Z,52
2018-08-25T09:28:26.493Z,53
2018-08-25T09:29:28.605Z,52
2018-08-25T09:30:30.756Z,53
2018-08-25T09:31:33.148Z,53
2018-08-25T09:32:35.238Z,53
2018-08-25T09:33:37.341Z,53
2018-08-25T09:34:39.447Z,53
2018-08-25T09:35:41.580Z,54
2018-08-25T09:36:44.315Z,54
2018-08-25T09:37:46.327Z,53
2018-08-25T09:38:49.033Z,53
2018-08-25T09:39:51.517Z,53
2018-08-25T09:40:53.920Z,53
2018-08-25T09:41:56.033Z,53
2018-08-25T09:42:58.128Z,53
2018-08-25T09:44:00.235Z,52
2018-08-25T09:45:03.045Z,52
2018-08-25T09:46:05.134Z,51
2018-08-25T09:47:07.329Z,52
2018-08-25T09:48:09.350Z,52
2018-08-25T09:49:11.435Z,52
2018-08-25T09:50:13.542Z,52
2018-08-25T09:51:15.938Z,52
2018-08-25T09:52:18.034Z,53
2018-08-25T09:53:20.837Z,54
2018-08-25T09:54:22.928Z,54
2018-08-25T09:55:25.025Z,55
2018-08-25T09:56:27.118Z,56
2018-08-25T09:57:29.233Z,57
2018-08-25T09:58:31.711Z,57
2018-08-25T09:59:34.123Z,56
2018-08-25T10:00:36.230Z,56
2018-08-25T10:01:38.318Z,55
2018-08-25T10:02:40.429Z,55
2018-08-25T10:03:42.525Z,54
2018-08-25T10:04:44.627Z,54
2018-08-25T10:05:46.715Z,55
2018-08-25T10:06:48.827Z,54
2018-08-25T10:07:51.228Z,53
2018-08-25T10:08:53.714Z,54
2018-08-25T10:09:55.835Z,54
2018-08-25T10:10:58.573Z,54
2018-08-25T10:12:00.585Z,54
2018-08-25T10:13:03.008Z,54
2018-08-25T10:14:05.549Z,53
2018-08-25T10:15:08.160Z,53
2018-08-25T10:16:10.497Z,53
2018-08-25T10:17:12.849Z,53
2018-08-25T10:18:14.949Z,53
2018-08-25T10:19:17.408Z,54
2018-08-25T10:20:19.507Z,55
2018-08-25T10:21:21.601Z,55
2018-08-25T10:22:24.780Z,54
2018-08-25T10:23:27.324Z,55
2018-08-25T10:24:29.731Z,55
2018-08-25T10:25:31.930Z,56
2018-08-25T10:26:34.724Z,58
2018-08-25T10:27:36.827Z,59
2018-08-25T10:28:39.226Z,62
2018-08-25T10:29:41.335Z,64
2018-08-25T10:30:44.022Z,65
2018-08-25T10:31:46.442Z,66
2018-08-25T10:32:48.541Z,68
2018-08-25T10:33:51.342Z,69
2018-08-25T10:34:54.134Z,70
2018-08-25T10:35:56.223Z,71
2018-08-25T10:36:58.332Z,73
2018-08-25T10:38:00.425Z,76
2018-08-25T10:39:02.536Z,76
2018-08-25T10:40:05.019Z,78
2018-08-25T10:41:07.121Z,79
2018-08-25T10:42:09.251Z,80
2018-08-25T10:43:11.314Z,82
2018-08-25T10:44:13.710Z,82
2018-08-25T10:45:15.807Z,83
2018-08-25T10:46:17.893Z,84
2018-08-25T10:47:19.995Z,85
2018-08-25T10:48:22.443Z,85
2018-08-25T10:49:24.832Z,86
2018-08-25T10:50:27.211Z,87
2018-08-25T10:51:29.312Z,88
2018-08-25T10:52:31.424Z,89
2018-08-25T10:53:33.532Z,87
2018-08-25T10:54:35.621Z,87
2018-08-25T10:55:37.729Z,87
2018-08-25T10:56:40.114Z,88
2018-08-25T10:57:43.072Z,87
2018-08-25T10:58:45.325Z,87
2018-08-25T10:59:47.410Z,88
2018-08-25T11:00:51.060Z,87
2018-08-25T11:01:53.091Z,88
2018-08-25T11:02:55.224Z,88
2018-08-25T11:03:57.711Z,87
2018-08-25T11:04:59.818Z,87
2018-08-25T11:06:01.944Z,86
2018-08-25T11:07:04.050Z,87
2018-08-25T11:08:06.170Z,88
2018-08-25T11:09:08.258Z,86
2018-08-25T11:10:10.360Z,86
2018-08-25T11:11:12.452Z,86
2018-08-25T11:12:14.959Z,83
2018-08-25T11:13:17.057Z,84
2018-08-25T11:14:19.478Z,83
2018-08-25T11:15:22.270Z,81
2018-08-25T11:16:24.411Z,82
2018-08-25T11:17:26.475Z,82
2018-08-25T11:18:28.885Z,79
2018-08-25T11:19:30.972Z,79
2018-08-25T11:20:33.358Z,78
2018-08-25T11:21:35.756Z,75
2018-08-25T11:22:37.851Z,76
2018-08-25T11:23:40.011Z,75
2018-08-25T11:24:42.516Z,75
2018-08-25T11:25:44.897Z,76
2018-08-25T11:26:46.999Z,76
2018-08-25T11:27:49.114Z,76
2018-08-25T11:28:51.204Z,77
2018-08-25T11:29:53.705Z,77
2018-08-25T11:30:56.101Z,75
2018-08-25T11:31:58.198Z,75
2018-08-25T11:33:00.305Z,75
2018-08-25T11:34:02.400Z,76
2018-08-25T11:35:04.892Z,75
2018-08-25T11:36:06.983Z,76
2018-08-25T11:37:09.117Z,77
2018-08-25T11:38:11.795Z,76
2018-08-25T11:39:13.742Z,76
2018-08-25T11:40:16.159Z,76
2018-08-25T11:41:18.249Z,77
2018-08-25T11:42:20.362Z,77
2018-08-25T11:43:22.748Z,78
2018-08-25T11:44:24.855Z,78
2018-08-25T11:45:27.293Z,76
2018-08-25T11:46:29.405Z,75
2018-08-25T11:47:31.501Z,72
2018-08-25T11:48:33.596Z,73
2018-08-25T11:49:35.710Z,73
2018-08-25T11:50:37.800Z,77
2018-08-25T11:51:39.905Z,70
2018-08-25T11:52:42.018Z,71
2018-08-25T11:53:44.511Z,70
2018-08-25T11:54:46.605Z,68
2018-08-25T11:55:48.715Z,68
2018-08-25T11:56:50.811Z,66
2018-08-25T11:57:53.203Z,68
2018-08-25T11:58:55.313Z,65
2018-08-25T11:59:57.418Z,64
2018-08-25T12:00:59.512Z,63
2018-08-25T12:02:02.070Z,65
2018-08-25T12:03:05.327Z,64
2018-08-25T12:04:07.426Z,65
2018-08-25T12:05:09.523Z,66
2018-08-25T12:06:11.647Z,67
2018-08-25T12:07:13.747Z,67
2018-08-25T12:08:16.553Z,68
2018-08-25T12:09:19.113Z,68
2018-08-25T12:10:21.186Z,69
2018-08-25T12:11:23.272Z,69
2018-08-25T12:12:25.374Z,70
2018-08-25T12:13:27.482Z,69
2018-08-25T12:14:29.570Z,70
2018-08-25T12:15:31.992Z,72
2018-08-25T12:16:34.092Z,72
2018-08-25T12:17:36.200Z,70
2018-08-25T12:18:38.287Z,71
2018-08-25T12:19:40.404Z,71
2018-08-25T12:20:42.503Z,72
2018-08-25T12:21:44.599Z,71
2018-08-25T12:22:46.714Z,72
2018-08-25T12:23:48.804Z,71
2018-08-25T12:24:51.304Z,71
2018-08-25T12:25:54.091Z,70
2018-08-25T12:26:56.197Z,71
2018-08-25T12:27:58.288Z,71
2018-08-25T12:29:00.395Z,72
2018-08-25T12:30:03.259Z,72
2018-08-25T12:31:05.353Z,72
2018-08-25T12:32:07.457Z,72
2018-08-25T12:33:09.559Z,73
2018-08-25T12:34:12.038Z,71
2018-08-25T12:35:14.152Z,71
2018-08-25T12:36:16.537Z,72
2018-08-25T12:37:18.629Z,73
2018-08-25T12:38:21.027Z,73
2018-08-25T12:39:23.120Z,73
2018-08-25T12:40:25.514Z,73
2018-08-25T12:41:27.616Z,72
2018-08-25T12:42:29.725Z,69
2018-08-25T12:43:33.147Z,68
2018-08-25T12:44:35.639Z,67
2018-08-25T12:45:37.741Z,66
2018-08-25T12:46:39.843Z,69
2018-08-25T12:47:41.928Z,63
2018-08-25T12:48:44.093Z,63
2018-08-25T12:49:46.141Z,64
2018-08-25T12:50:48.632Z,63
2018-08-25T12:51:50.721Z,62
2018-08-25T12:52:52.830Z,62
2018-08-25T12:53:54.928Z,59
2018-08-25T12:54:57.026Z,58
2018-08-25T12:55:59.140Z,60
2018-08-25T12:57:01.230Z,59
2018-08-25T12:58:03.376Z,61
2018-08-25T12:59:05.841Z,59
2018-08-25T13:00:08.331Z,61
2018-08-25T13:01:10.811Z,60
2018-08-25T13:02:12.924Z,60
2018-08-25T13:03:15.022Z,59
2018-08-25T13:04:17.122Z,61
2018-08-25T13:05:19.539Z,61
2018-08-25T13:06:21.636Z,62
2018-08-25T13:07:23.752Z,64
2018-08-25T13:08:26.270Z,65
2018-08-25T13:09:28.369Z,63
2018-08-25T13:10:30.855Z,63
2018-08-25T13:11:32.960Z,63
2018-08-25T13:12:35.050Z,66
2018-08-25T13:13:37.160Z,64
2018-08-25T13:14:40.103Z,65
2018-08-25T13:15:42.203Z,66
2018-08-25T13:16:44.290Z,66
2018-08-25T13:17:46.398Z,66
2018-08-25T13:18:48.512Z,67
2018-08-25T13:19:50.585Z,69
2018-08-25T13:20:52.683Z,69
2018-08-25T13:21:54.864Z,70
2018-08-25T13:22:56.885Z,71
2018-08-25T13:23:58.993Z,72
2018-08-25T13:25:01.129Z,73
2018-08-25T13:26:03.191Z,74
2018-08-25T13:27:05.282Z,75
2018-08-25T13:28:07.667Z,77
2018-08-25T13:29:09.780Z,79
2018-08-25T13:30:12.563Z,79
2018-08-25T13:31:14.681Z,78
2018-08-25T13:32:16.780Z,78
2018-08-25T13:33:19.171Z,78
2018-08-25T13:34:21.267Z,78
2018-08-25T13:35:23.369Z,78
2018-08-25T13:36:25.472Z,78
2018-08-25T13:37:27.854Z,78
2018-08-25T13:38:29.966Z,77
2018-08-25T13:39:32.448Z,77
2018-08-25T13:40:34.829Z,75
2018-08-25T13:41:36.955Z,76
2018-08-25T13:42:39.647Z,76
2018-08-25T13:43:41.752Z,75
2018-08-25T13:44:43.855Z,75
2018-08-25T13:45:45.943Z,74
2018-08-25T13:46:48.049Z,71
2018-08-25T13:47:50.155Z,72
2018-08-25T13:48:52.651Z,71
2018-08-25T13:49:54.734Z,69
2018-08-25T13:50:57.163Z,69
2018-08-25T13:51:59.558Z,69
2018-08-25T13:53:01.965Z,70
2018-08-25T13:54:04.082Z,68
2018-08-25T13:55:06.183Z,69
2018-08-25T13:56:08.279Z,66
2018-08-25T13:57:10.380Z,63
2018-08-25T13:58:12.526Z,64
2018-08-25T13:59:14.590Z,64
2018-08-25T14:00:16.698Z,67
2018-08-25T14:01:18.803Z,69
2018-08-25T14:02:21.204Z,68
2018-08-25T14:03:23.314Z,69
2018-08-25T14:04:25.419Z,71
2018-08-25T14:05:27.814Z,70
2018-08-25T14:06:29.918Z,69
2018-08-25T14:07:32.033Z,70
2018-08-25T14:08:34.135Z,74
2018-08-25T14:09:36.541Z,74
2018-08-25T14:10:38.933Z,76
2018-08-25T14:11:41.023Z,73
2018-08-25T14:12:43.131Z,78
2018-08-25T14:13:45.244Z,74
2018-08-25T14:14:47.335Z,76
2018-08-25T14:15:49.473Z,75
2018-08-25T14:16:51.548Z,73
2018-08-25T14:17:53.952Z,72
2018-08-25T14:18:56.360Z,72
2018-08-25T14:19:58.458Z,74
2018-08-25T14:21:00.560Z,75
2018-08-25T14:22:02.656Z,77
2018-08-25T14:23:04.772Z,77
2018-08-25T14:24:07.460Z,78
2018-08-25T14:25:09.564Z,79
2018-08-25T14:26:11.670Z,79
2018-08-25T14:27:13.760Z,81
2018-08-25T14:28:15.878Z,80
2018-08-25T14:29:17.971Z,79
2018-08-25T14:30:20.466Z,79
2018-08-25T14:31:22.549Z,83
2018-08-25T14:32:24.658Z,84
2018-08-25T14:33:27.041Z,83
2018-08-25T14:34:29.142Z,85
2018-08-25T14:35:31.260Z,86
2018-08-25T14:36:33.739Z,87
2018-08-25T14:37:35.830Z,86
2018-08-25T14:38:37.919Z,85
2018-08-25T14:39:40.308Z,86
2018-08-25T14:40:42.998Z,85
2018-08-25T14:41:45.600Z,84
2018-08-25T14:42:48.091Z,84
2018-08-25T14:43:50.188Z,86
2018-08-25T14:44:52.277Z,85
2018-08-25T14:45:54.378Z,84
2018-08-25T14:46:57.184Z,86
2018-08-25T14:47:59.277Z,86